Startpagina
METAR-TAF:

METAR-TAF

Vliegvelden :

Cerklje ob Krki, Slovenië

breedte: 45-53-59N, lengte: 15-30-55E, hoogte: 157 m

Actueel weer

Dit bericht is 30 minuten geleden gemaakt, om 22:00 UTC
Wind 2 kt uit variabele richting
Temperatuur 18°C
Vochtigheid 88%
Druk 1017 hPa
Zicht 10 km of meer

METAR: LJCE 232200Z AUTO VRB02KT 9999 NCD 18/16 Q1017

Tijdstip: 00:30 (22:30 UTC)

Verwachting

Dit bericht is 2 uur en het 30 minuten geleden gemaakt, om 20:00 UTC
Verwachting geldig van 23 om 21 UTC tot 24 om 06 UTC
Wind 2 kt uit variabele richting
Zicht 10 km of meer
Weinig wolken op 4000 ft
Verspreide wolken op 10000 ft
Tijdelijke
van 23 om 21 UTC tot 24 om 03 UTC
Verspreide wolken op 3500 ft, Stapelwolken.
Gebroken wolken op 5500 ft
regenbuien

TAF: LJCE 232000Z 2321/2406 VRB02KT 9999 FEW040 SCT100 TEMPO 2321/2403 SHRA SCT035TCU BKN055

Waarnemingen en weersverwachtingen van meer dan 4000 vliegvelden (METAR en TAF).

De beschikbare stations zijn de gele en rode punten op de kaart.

Ga met uw muis naar het station om de naam te zien.

Klik dan om waarnemingen en weersverwachtingen te zien.

kaart wijzigen: klik op de groene knoppen met een zwart kruis om in te zoomen, op de groene knop met een streepje om uit te zoomen of op de groene pijlen voor aangrenzende kaarten.


METAR-TAF: